createdAt,value
2019-03-12T00:02:17.640Z,20.44
2019-03-12T00:04:49.193Z,20.44
2019-03-12T00:07:20.851Z,20.42
2019-03-12T00:09:53.820Z,20.42
2019-03-12T00:12:25.295Z,20.40
2019-03-12T00:14:56.742Z,20.39
2019-03-12T00:17:28.195Z,20.38
2019-03-12T00:19:59.753Z,20.34
2019-03-12T00:22:31.304Z,20.33
2019-03-12T00:25:03.059Z,20.30
2019-03-12T00:27:34.516Z,20.28
2019-03-12T00:30:54.605Z,20.27
2019-03-12T00:33:26.056Z,20.24
2019-03-12T00:35:57.506Z,20.22
2019-03-12T00:38:28.964Z,20.19
2019-03-12T00:41:00.414Z,20.17
2019-03-12T00:43:32.585Z,20.17
2019-03-12T00:46:04.238Z,20.17
2019-03-12T00:48:36.819Z,20.16
2019-03-12T00:51:08.367Z,20.16
2019-03-12T00:53:40.027Z,20.15
2019-03-12T00:56:11.580Z,20.14
2019-03-12T00:58:43.031Z,20.14
2019-03-12T01:01:14.444Z,20.14
2019-03-12T01:03:45.628Z,20.13
2019-03-12T01:06:17.079Z,20.13
2019-03-12T01:08:48.735Z,20.13
2019-03-12T01:11:23.670Z,20.11
2019-03-12T01:13:55.121Z,20.11
2019-03-12T01:16:26.473Z,20.11
2019-03-12T01:18:57.920Z,20.10
2019-03-12T01:21:30.197Z,20.09
2019-03-12T01:24:01.746Z,20.09
2019-03-12T01:26:33.299Z,20.08
2019-03-12T01:29:04.750Z,20.06
2019-03-12T01:31:36.400Z,20.06
2019-03-12T01:34:07.555Z,20.07
2019-03-12T01:36:39.005Z,20.08
2019-03-12T01:39:10.461Z,20.08
2019-03-12T01:41:42.420Z,20.08
2019-03-12T01:44:13.975Z,20.08
2019-03-12T01:46:46.346Z,20.07
2019-03-12T01:49:17.799Z,20.07
2019-03-12T01:51:49.252Z,20.06
2019-03-12T01:54:21.522Z,20.06
2019-03-12T01:56:54.901Z,20.04
2019-03-12T01:59:26.986Z,20.04
2019-03-12T02:01:58.648Z,20.05
2019-03-12T02:04:30.196Z,20.06
2019-03-12T02:07:01.754Z,20.07
2019-03-12T02:09:33.200Z,20.08
2019-03-12T02:12:04.760Z,20.06
2019-03-12T02:14:36.314Z,20.07
2019-03-12T02:17:07.863Z,20.07
2019-03-12T02:19:39.122Z,20.06
2019-03-12T02:22:10.769Z,20.06
2019-03-12T02:24:52.154Z,20.06
2019-03-12T02:27:15.620Z,20.07
2019-03-12T02:29:47.172Z,20.05
2019-03-12T02:32:18.633Z,20.04
2019-03-12T02:34:50.485Z,20.05
2019-03-12T02:37:21.938Z,20.06
2019-03-12T02:39:53.391Z,20.08
2019-03-12T02:42:24.844Z,20.09
2019-03-12T02:44:56.295Z,20.10
2019-03-12T02:47:27.847Z,20.11
2019-03-12T02:49:59.502Z,20.10
2019-03-12T02:52:30.649Z,20.11
2019-03-12T02:55:02.405Z,20.13
2019-03-12T02:57:33.647Z,20.12
2019-03-12T03:00:18.318Z,20.14
2019-03-12T03:02:49.874Z,20.15
2019-03-12T03:05:21.425Z,20.15
2019-03-12T03:07:54.534Z,20.15
2019-03-12T03:10:26.276Z,20.17
2019-03-12T03:12:57.828Z,20.16
2019-03-12T03:15:37.482Z,20.17
2019-03-12T03:18:09.033Z,20.19
2019-03-12T03:20:40.476Z,20.19
2019-03-12T03:23:12.029Z,20.22
2019-03-12T03:25:43.481Z,20.23
2019-03-12T03:28:14.837Z,20.23
2019-03-12T03:30:46.694Z,20.23
2019-03-12T03:33:18.045Z,20.23
2019-03-12T03:35:49.698Z,20.24
2019-03-12T03:38:21.255Z,20.24
2019-03-12T03:40:52.908Z,20.25
2019-03-12T03:43:24.467Z,20.26
2019-03-12T03:45:56.122Z,20.26
2019-03-12T03:48:27.679Z,20.27
2019-03-12T03:50:59.243Z,20.28
2019-03-12T03:53:30.786Z,20.27
2019-03-12T03:56:02.133Z,20.27
2019-03-12T03:58:33.181Z,20.27
2019-03-12T04:01:04.730Z,20.27
2019-03-12T04:03:35.884Z,20.28
2019-03-12T04:06:07.318Z,20.28
2019-03-12T04:08:40.315Z,20.29
2019-03-12T04:11:11.462Z,20.28
2019-03-12T04:13:42.809Z,20.27
2019-03-12T04:16:14.251Z,20.26
2019-03-12T04:18:45.712Z,20.27
2019-03-12T04:21:17.265Z,20.26
2019-03-12T04:23:48.724Z,20.27
2019-03-12T04:26:20.164Z,20.25
2019-03-12T04:28:51.314Z,20.25
2019-03-12T04:31:22.764Z,20.27
2019-03-12T04:34:00.052Z,20.29
2019-03-12T04:36:31.510Z,20.30
2019-03-12T04:39:02.948Z,20.32
2019-03-12T04:41:35.775Z,20.34
2019-03-12T04:44:06.882Z,20.40
2019-03-12T04:46:38.233Z,20.42
2019-03-12T04:49:10.108Z,20.43
2019-03-12T04:51:41.855Z,20.42
2019-03-12T04:54:13.510Z,20.42
2019-03-12T04:56:45.884Z,20.42
2019-03-12T04:59:17.335Z,20.41
2019-03-12T05:01:48.684Z,20.43
2019-03-12T05:04:20.419Z,20.44
2019-03-12T05:06:51.430Z,20.44
2019-03-12T05:09:22.545Z,20.43
2019-03-12T05:11:54.146Z,20.42
2019-03-12T05:14:26.773Z,20.43
2019-03-12T05:17:01.185Z,20.42
2019-03-12T05:19:32.681Z,20.40
2019-03-12T05:22:04.087Z,20.40
2019-03-12T05:24:35.123Z,20.41
2019-03-12T05:27:06.688Z,20.41
2019-03-12T05:29:38.083Z,20.44
2019-03-12T05:32:10.202Z,20.47
2019-03-12T05:34:41.451Z,20.51
2019-03-12T05:37:12.712Z,20.54
2019-03-12T05:39:43.849Z,20.57
2019-03-12T05:42:16.623Z,20.55
2019-03-12T05:44:48.691Z,20.59
2019-03-12T05:47:20.100Z,20.64
2019-03-12T05:49:53.051Z,20.66
2019-03-12T05:52:24.271Z,20.70
2019-03-12T05:54:56.034Z,20.70
2019-03-12T05:57:28.199Z,20.69
2019-03-12T06:00:00.533Z,20.73
2019-03-12T06:02:31.926Z,20.79
2019-03-12T06:05:04.095Z,20.82
2019-03-12T06:11:04.451Z,18.38
2019-03-12T06:13:35.632Z,14.43
2019-03-12T06:16:06.863Z,11.10
2019-03-12T06:18:38.056Z,9.19
2019-03-12T06:21:09.122Z,7.46
2019-03-12T06:23:40.632Z,6.16
2019-03-12T06:26:11.739Z,5.34
2019-03-12T06:28:42.816Z,4.57
2019-03-12T06:31:21.319Z,4.09
2019-03-12T06:34:01.489Z,3.56
2019-03-12T06:36:37.169Z,3.45
2019-03-12T06:39:12.841Z,3.28
2019-03-12T06:41:46.584Z,3.10
2019-03-12T06:44:19.154Z,3.00
2019-03-12T06:47:00.674Z,3.00
2019-03-12T06:49:35.967Z,2.98
2019-03-12T06:52:23.361Z,3.05
2019-03-12T06:55:05.197Z,3.13
2019-03-12T06:57:57.651Z,3.29
2019-03-12T07:00:36.717Z,3.42
2019-03-12T07:03:19.926Z,3.71
2019-03-12T07:05:55.585Z,3.82
2019-03-12T07:08:34.496Z,3.90
2019-03-12T07:11:09.997Z,4.07
2019-03-12T07:13:43.447Z,4.20
2019-03-12T07:16:16.102Z,4.46
2019-03-12T07:18:57.658Z,4.70
2019-03-12T07:21:42.294Z,4.88
2019-03-12T07:24:14.933Z,4.99
2019-03-12T07:26:47.660Z,5.00
2019-03-12T07:29:26.089Z,5.05
2019-03-12T07:32:07.799Z,5.02
2019-03-12T07:34:40.547Z,5.10
2019-03-12T07:37:25.363Z,5.02
2019-03-12T07:40:07.086Z,5.13
2019-03-12T07:42:56.452Z,5.32
2019-03-12T07:45:46.524Z,5.45
2019-03-12T07:48:20.556Z,5.51
2019-03-12T07:51:02.308Z,5.57
2019-03-12T07:53:37.747Z,5.71
2019-03-12T07:56:19.329Z,5.70
2019-03-12T07:58:56.539Z,5.95
2019-03-12T08:01:35.328Z,6.05
2019-03-12T08:04:15.363Z,6.39
2019-03-12T08:07:03.277Z,6.80
2019-03-12T08:09:44.995Z,7.25
2019-03-12T08:12:18.544Z,7.55
2019-03-12T08:15:03.558Z,8.06
2019-03-12T08:17:40.838Z,8.04
2019-03-12T08:20:13.588Z,8.43
2019-03-12T08:23:01.869Z,8.94
2019-03-12T08:25:38.370Z,9.68
2019-03-12T08:28:23.249Z,10.73
2019-03-12T08:31:12.539Z,11.65
2019-03-12T08:34:01.868Z,12.62
2019-03-12T08:36:40.302Z,13.02
2019-03-12T08:39:29.732Z,13.33
2019-03-12T08:42:02.646Z,13.54
2019-03-12T08:44:42.538Z,14.10
2019-03-12T08:47:21.557Z,14.10
2019-03-12T08:50:04.842Z,13.78
2019-03-12T08:52:41.786Z,14.26
2019-03-12T08:55:31.942Z,14.38
2019-03-12T08:58:05.107Z,14.37
2019-03-12T09:00:43.567Z,14.84
2019-03-12T09:03:20.795Z,15.30
2019-03-12T09:06:09.772Z,16.29
2019-03-12T09:08:45.161Z,17.32
2019-03-12T09:11:23.487Z,17.24
2019-03-12T09:14:05.189Z,17.68
2019-03-12T09:16:40.820Z,18.24
2019-03-12T09:19:31.569Z,18.93
2019-03-12T09:22:06.899Z,18.35
2019-03-12T09:24:45.621Z,17.38
2019-03-12T09:27:24.199Z,15.77
2019-03-12T09:30:02.416Z,15.20
2019-03-12T09:32:35.228Z,15.01
2019-03-12T09:35:09.911Z,14.50
2019-03-12T09:37:45.539Z,13.96
2019-03-12T09:40:21.293Z,13.38
2019-03-12T09:42:59.383Z,12.83
2019-03-12T09:45:32.076Z,12.22
2019-03-12T09:48:07.672Z,11.83
2019-03-12T09:50:46.393Z,11.54
2019-03-12T09:53:25.024Z,11.35
2019-03-12T09:56:05.027Z,11.60
2019-03-12T09:58:40.731Z,11.97
2019-03-12T10:01:16.827Z,12.52
2019-03-12T10:03:49.576Z,12.53
2019-03-12T10:06:35.123Z,12.83
2019-03-12T10:09:15.533Z,12.83
2019-03-12T10:11:48.296Z,12.72
2019-03-12T10:14:23.903Z,13.03
2019-03-12T10:16:59.559Z,13.03
2019-03-12T10:19:34.822Z,13.75
2019-03-12T10:22:23.808Z,13.84
2019-03-12T10:25:12.703Z,14.22
2019-03-12T10:27:45.550Z,13.92
2019-03-12T10:30:37.492Z,13.80
2019-03-12T10:33:16.394Z,13.30
2019-03-12T10:35:55.850Z,13.63
2019-03-12T10:39:10.887Z,13.63
2019-03-12T10:41:44.657Z,12.97
2019-03-12T10:44:29.140Z,12.86
2019-03-12T10:47:01.829Z,13.06
2019-03-12T10:49:37.702Z,13.04
2019-03-12T10:52:06.691Z,13.01
2019-03-12T10:54:37.762Z,12.90
2019-03-12T10:57:09.965Z,12.90
2019-03-12T10:59:41.075Z,13.53
2019-03-12T11:02:12.142Z,13.96
2019-03-12T11:04:43.194Z,14.87
2019-03-12T11:07:16.733Z,15.97
2019-03-12T11:09:48.440Z,15.55
2019-03-12T11:12:19.608Z,14.77
2019-03-12T11:14:51.553Z,15.09
2019-03-12T11:17:23.605Z,15.79
2019-03-12T11:19:55.533Z,16.15
2019-03-12T11:22:26.679Z,15.60
2019-03-12T11:24:58.270Z,15.02
2019-03-12T18:48:44.756Z,2.63
2019-03-12T18:51:17.214Z,2.67
2019-03-12T18:53:48.625Z,2.74
2019-03-12T18:56:20.741Z,2.73
2019-03-12T18:58:54.725Z,2.74
2019-03-12T19:01:26.306Z,2.79
2019-03-12T19:03:57.729Z,2.92
2019-03-12T19:06:29.085Z,2.92
2019-03-12T19:09:00.920Z,2.86
2019-03-12T19:11:37.513Z,2.82
2019-03-12T19:14:07.619Z,2.82
2019-03-12T19:16:39.666Z,2.84
2019-03-12T19:19:11.259Z,2.85
2019-03-12T19:21:42.627Z,2.83
2019-03-12T19:24:15.017Z,2.80
2019-03-12T19:26:46.335Z,2.78
2019-03-12T19:29:17.827Z,2.82
2019-03-12T19:31:50.731Z,2.74
2019-03-12T19:34:23.955Z,2.61
2019-03-12T19:36:55.338Z,2.46
2019-03-12T19:39:28.243Z,2.25
2019-03-12T19:41:59.780Z,2.18
2019-03-12T19:44:31.272Z,2.10
2019-03-12T19:47:04.562Z,2.10
2019-03-12T19:49:35.521Z,2.10
2019-03-12T19:52:07.175Z,2.03
2019-03-12T19:54:39.314Z,1.95
2019-03-12T19:57:12.327Z,1.94
2019-03-12T19:59:43.912Z,1.86
2019-03-12T20:02:16.572Z,1.63
